Time;durP1;ratioP1;P1;durP2;ratioP2;P2;SDS_P1;SDS_P2;PMS_P1;PMS_P2;Temp;Humidity;BMP_temperature;BMP_pressure;BME280_temperature;BME280_humidity;BME280_pressure;Samples;Min_cycle;Max_cycle;Signal;HPM_P1;HPM_P2
2022/10/27 00:00:36;;;;;;;;;;;12.70;99.90;;;;;;5133676;27;1154;-66
2022/10/27 00:03:02;;;;;;;;;;;12.60;99.90;;;;;;5132270;27;1065;-67
2022/10/27 00:05:27;;;;;;;;;;;12.50;99.90;;;;;;5133944;27;1910;-66
2022/10/27 00:07:53;;;;;;;;;;;12.40;99.90;;;;;;5131168;27;1617;-66
2022/10/27 00:10:19;;;;;;;;;;;12.40;99.90;;;;;;5129491;27;1127;-67
2022/10/27 00:12:45;;;;;;;;;;;12.40;99.90;;;;;;5128362;27;1100;-67
2022/10/27 00:15:11;;;;;;;;;;;12.40;99.90;;;;;;5133124;27;1124;-66
2022/10/27 00:17:37;;;;;;;;;;;12.30;99.90;;;;;;5131849;27;1096;-67
2022/10/27 00:20:03;;;;;;;;;;;12.40;99.90;;;;;;5132830;27;1215;-66
2022/10/27 00:22:29;;;;;;;;;;;12.40;99.90;;;;;;5132539;27;1167;-66
2022/10/27 00:24:54;;;;;;;;;;;12.30;99.90;;;;;;5131000;27;1988;-66
2022/10/27 00:27:20;;;;;;;;;;;12.40;99.90;;;;;;5132410;27;1092;-66
2022/10/27 00:29:46;;;;;;;;;;;12.30;99.90;;;;;;5104708;27;1201;-66
2022/10/27 00:32:11;;;;;;;;;;;12.20;99.90;;;;;;5131638;27;1074;-66
2022/10/27 00:34:37;;;;;;;;;;;12.10;99.90;;;;;;5132970;27;1147;-66
2022/10/27 00:37:02;;;;;;;;;;;12.10;99.90;;;;;;5128449;27;1090;-66
2022/10/27 00:39:28;;;;;;;;;;;12.00;99.90;;;;;;5130220;27;1136;-66
2022/10/27 00:41:54;;;;;;;;;;;12.00;99.90;;;;;;5110188;27;1140;-66
2022/10/27 00:44:29;;;;;;;;;;;12.00;99.90;;;;;;5132553;27;1202;-66
2022/10/27 00:46:55;;;;;;;;;;;11.90;99.90;;;;;;5131136;27;1128;-66
2022/10/27 00:49:23;;;;;;;;;;;11.90;99.90;;;;;;5131120;27;1071;-66
2022/10/27 00:51:52;;;;;;;;;;;11.90;99.90;;;;;;5130245;27;1100;-66
2022/10/27 00:54:18;;;;;;;;;;;11.90;99.90;;;;;;5128954;27;1218;-66
2022/10/27 00:56:46;;;;;;;;;;;11.90;99.90;;;;;;5127817;27;1318;-66
2022/10/27 00:59:12;;;;;;;;;;;11.90;99.90;;;;;;5110137;27;1205;-66
2022/10/27 01:01:38;;;;;;;;;;;11.80;99.90;;;;;;5128819;27;1175;-66
2022/10/27 01:04:04;;;;;;;;;;;11.70;99.90;;;;;;5130731;27;1191;-66
2022/10/27 01:06:29;;;;;;;;;;;11.70;99.90;;;;;;5093280;27;1925;-66
2022/10/27 01:08:56;;;;;;;;;;;11.70;99.90;;;;;;5132417;27;1520;-66
2022/10/27 01:11:22;;;;;;;;;;;11.80;99.90;;;;;;5132340;27;1115;-66
2022/10/27 01:13:47;;;;;;;;;;;11.90;99.90;;;;;;5131226;27;1185;-66
2022/10/27 01:16:21;;;;;;;;;;;11.90;99.90;;;;;;5132309;27;1120;-66
2022/10/27 01:18:54;;;;;;;;;;;12.00;99.90;;;;;;5132296;27;1112;-66
2022/10/27 01:21:21;;;;;;;;;;;11.90;99.90;;;;;;5131296;27;1123;-66
2022/10/27 01:23:47;;;;;;;;;;;11.70;99.90;;;;;;5132216;27;981;-66
2022/10/27 01:26:26;;;;;;;;;;;11.70;99.90;;;;;;5112527;27;1983;-66
2022/10/27 01:28:52;;;;;;;;;;;11.60;99.90;;;;;;5111533;27;1100;-66
2022/10/27 01:31:36;;;;;;;;;;;11.50;99.90;;;;;;5129945;27;1086;-66
2022/10/27 01:34:08;;;;;;;;;;;11.40;99.90;;;;;;5108805;27;1183;-66
2022/10/27 01:36:41;;;;;;;;;;;11.50;99.90;;;;;;5126992;27;1019;-66
2022/10/27 01:39:12;;;;;;;;;;;11.50;99.90;;;;;;5128301;27;1115;-66
2022/10/27 01:41:46;;;;;;;;;;;11.70;99.90;;;;;;5127728;27;1107;-66
2022/10/27 01:44:17;;;;;;;;;;;11.70;99.90;;;;;;5129776;27;1170;-66
2022/10/27 01:46:43;;;;;;;;;;;11.60;99.90;;;;;;5128856;27;1906;-66
2022/10/27 01:49:09;;;;;;;;;;;11.60;99.90;;;;;;5126445;27;1300;-66
2022/10/27 01:51:35;;;;;;;;;;;11.60;99.90;;;;;;5128765;27;1064;-66
2022/10/27 01:54:02;;;;;;;;;;;11.60;99.90;;;;;;5128107;27;1128;-66
2022/10/27 01:56:37;;;;;;;;;;;11.60;99.90;;;;;;5126490;27;1112;-66
2022/10/27 01:59:12;;;;;;;;;;;11.60;99.90;;;;;;5120058;27;1142;-66
2022/10/27 02:01:38;;;;;;;;;;;11.60;99.90;;;;;;5129256;27;1092;-66
2022/10/27 02:04:06;;;;;;;;;;;11.90;99.90;;;;;;5128932;27;1124;-66
2022/10/27 02:06:35;;;;;;;;;;;12.10;99.90;;;;;;5125487;27;2023;-66
2022/10/27 02:09:10;;;;;;;;;;;12.20;99.90;;;;;;5133238;27;1567;-66
2022/10/27 02:11:36;;;;;;;;;;;12.20;99.90;;;;;;5130896;27;1139;-66
2022/10/27 02:14:03;;;;;;;;;;;12.30;99.90;;;;;;5130929;27;1174;-66
2022/10/27 02:16:30;;;;;;;;;;;12.40;99.90;;;;;;5130388;27;1112;-67
2022/10/27 02:18:59;;;;;;;;;;;12.50;99.90;;;;;;5131443;28;1112;-66
2022/10/27 02:21:25;;;;;;;;;;;12.50;99.90;;;;;;5131251;28;1120;-66
2022/10/27 02:23:51;;;;;;;;;;;12.60;99.90;;;;;;5110854;28;1180;-67
2022/10/27 02:26:23;;;;;;;;;;;12.70;99.90;;;;;;5116287;28;1917;-67
2022/10/27 02:28:48;;;;;;;;;;;12.70;99.90;;;;;;5123261;28;1138;-66
2022/10/27 02:31:16;;;;;;;;;;;12.70;99.90;;;;;;5128742;28;1108;-67
2022/10/27 02:33:41;;;;;;;;;;;12.70;99.90;;;;;;5109853;28;1086;-67
2022/10/27 02:36:07;;;;;;;;;;;12.70;99.90;;;;;;5111848;28;1415;-67
2022/10/27 02:38:33;;;;;;;;;;;12.70;99.90;;;;;;5129277;28;1155;-66
2022/10/27 02:40:58;;;;;;;;;;;12.70;99.90;;;;;;5129111;28;1278;-67
2022/10/27 02:43:24;;;;;;;;;;;12.70;99.90;;;;;;5129959;28;1108;-66
2022/10/27 02:45:50;;;;;;;;;;;12.70;99.90;;;;;;5129546;28;1906;-67
2022/10/27 02:48:15;;;;;;;;;;;12.70;99.90;;;;;;5131019;28;1111;-67
2022/10/27 02:50:41;;;;;;;;;;;12.70;99.90;;;;;;5129737;28;1202;-67
2022/10/27 02:53:06;;;;;;;;;;;12.60;99.90;;;;;;5131964;27;1096;-67
2022/10/27 02:55:32;;;;;;;;;;;12.60;99.90;;;;;;5134418;27;1088;-67
2022/10/27 02:57:58;;;;;;;;;;;12.50;99.90;;;;;;5144487;27;1361;-67
2022/10/27 03:00:23;;;;;;;;;;;12.50;99.90;;;;;;5128449;27;1173;-67
2022/10/27 03:02:49;;;;;;;;;;;12.50;99.90;;;;;;5131332;27;1151;-67
2022/10/27 03:05:14;;;;;;;;;;;12.50;99.90;;;;;;5111902;27;1918;-67
2022/10/27 03:07:41;;;;;;;;;;;12.50;99.90;;;;;;5133725;27;1562;-67
2022/10/27 03:10:07;;;;;;;;;;;12.50;99.90;;;;;;5120762;27;1133;-67
2022/10/27 03:12:33;;;;;;;;;;;12.50;99.90;;;;;;5131111;27;1143;-67
2022/10/27 03:14:58;;;;;;;;;;;12.40;99.90;;;;;;5114641;27;1163;-67
2022/10/27 03:17:24;;;;;;;;;;;12.40;99.90;;;;;;5133524;27;1185;-67
2022/10/27 03:19:50;;;;;;;;;;;12.40;99.90;;;;;;5133770;27;1120;-67
2022/10/27 03:22:15;;;;;;;;;;;12.40;99.90;;;;;;5132554;27;1143;-67
2022/10/27 03:24:41;;;;;;;;;;;12.40;99.90;;;;;;5132885;27;1960;-67
2022/10/27 03:27:06;;;;;;;;;;;12.40;99.90;;;;;;5130126;27;1239;-67
2022/10/27 03:29:32;;;;;;;;;;;12.30;99.90;;;;;;5130295;27;1179;-67
2022/10/27 03:31:58;;;;;;;;;;;12.30;99.90;;;;;;5131607;27;1135;-67
2022/10/27 03:34:23;;;;;;;;;;;12.30;99.90;;;;;;5131202;27;1066;-67
2022/10/27 03:36:49;;;;;;;;;;;12.30;99.90;;;;;;5130379;27;1076;-67
2022/10/27 03:39:14;;;;;;;;;;;12.30;99.90;;;;;;5130059;27;1578;-67
2022/10/27 03:41:40;;;;;;;;;;;12.40;99.90;;;;;;5111549;27;1104;-67
2022/10/27 03:44:06;;;;;;;;;;;12.30;99.90;;;;;;5128854;27;1139;-67
2022/10/27 03:46:31;;;;;;;;;;;12.30;99.90;;;;;;5129469;27;2032;-67
2022/10/27 03:48:57;;;;;;;;;;;12.30;99.90;;;;;;5129419;27;1169;-66
2022/10/27 03:51:22;;;;;;;;;;;12.40;99.90;;;;;;5129166;27;1017;-67
2022/10/27 03:53:48;;;;;;;;;;;12.40;99.90;;;;;;5131884;27;1131;-67
2022/10/27 03:56:14;;;;;;;;;;;12.30;99.90;;;;;;5129663;27;1100;-67
2022/10/27 03:58:39;;;;;;;;;;;12.30;99.90;;;;;;5125807;27;1286;-67
2022/10/27 04:01:05;;;;;;;;;;;12.30;99.90;;;;;;5126879;27;1139;-67
2022/10/27 04:03:31;;;;;;;;;;;12.30;99.90;;;;;;5127525;27;1120;-67
2022/10/27 04:05:57;;;;;;;;;;;12.20;99.90;;;;;;5127691;27;1910;-67
2022/10/27 04:08:22;;;;;;;;;;;12.20;99.90;;;;;;5132777;27;1366;-67
2022/10/27 04:10:48;;;;;;;;;;;12.20;99.90;;;;;;5132811;27;1110;-67
2022/10/27 04:13:14;;;;;;;;;;;12.10;99.90;;;;;;5133501;27;1112;-67
2022/10/27 04:15:39;;;;;;;;;;;12.10;99.90;;;;;;5132322;27;1159;-67
2022/10/27 04:18:05;;;;;;;;;;;12.10;99.90;;;;;;5133346;27;1084;-66
2022/10/27 04:20:31;;;;;;;;;;;12.10;99.90;;;;;;5133178;27;1235;-66
2022/10/27 04:22:57;;;;;;;;;;;12.00;99.90;;;;;;5132315;27;1194;-67
2022/10/27 04:25:23;;;;;;;;;;;12.00;99.90;;;;;;5112093;27;1970;-66
2022/10/27 04:27:49;;;;;;;;;;;12.10;99.90;;;;;;5111110;27;1040;-66
2022/10/27 04:30:14;;;;;;;;;;;12.10;99.90;;;;;;5128459;27;1224;-66
2022/10/27 04:32:40;;;;;;;;;;;12.20;99.90;;;;;;5128243;27;1147;-66
2022/10/27 04:35:06;;;;;;;;;;;12.30;99.90;;;;;;5129035;27;1384;-66
2022/10/27 04:37:32;;;;;;;;;;;12.40;99.90;;;;;;5126694;27;1423;-66
2022/10/27 04:39:58;;;;;;;;;;;12.40;99.90;;;;;;5129557;27;1427;-66
2022/10/27 04:42:24;;;;;;;;;;;12.40;99.90;;;;;;5127272;27;1143;-67
2022/10/27 04:44:50;;;;;;;;;;;12.40;99.90;;;;;;5128816;27;1913;-67
2022/10/27 04:47:15;;;;;;;;;;;12.40;99.90;;;;;;5130564;27;1198;-67
2022/10/27 04:49:41;;;;;;;;;;;12.50;99.90;;;;;;5128722;27;1310;-66
2022/10/27 04:52:06;;;;;;;;;;;12.50;99.90;;;;;;5129030;27;1095;-66
2022/10/27 04:54:32;;;;;;;;;;;12.50;99.90;;;;;;5129209;27;1120;-67
2022/10/27 04:56:58;;;;;;;;;;;12.50;99.90;;;;;;5130127;27;1473;-67
2022/10/27 04:59:23;;;;;;;;;;;12.50;99.90;;;;;;5117140;27;1189;-67
2022/10/27 05:01:49;;;;;;;;;;;12.50;99.90;;;;;;5128935;27;1220;-66
2022/10/27 05:04:15;;;;;;;;;;;12.50;99.90;;;;;;5124256;27;1225;-66
2022/10/27 05:06:40;;;;;;;;;;;12.50;99.90;;;;;;5128491;27;1905;-67
2022/10/27 05:09:06;;;;;;;;;;;12.40;99.90;;;;;;5131005;27;1575;-67
2022/10/27 05:11:31;;;;;;;;;;;12.40;99.90;;;;;;5131524;27;1179;-67
2022/10/27 05:13:57;;;;;;;;;;;12.30;99.90;;;;;;5130084;27;1215;-67
2022/10/27 05:16:23;;;;;;;;;;;12.30;99.90;;;;;;5131323;27;1115;-67
2022/10/27 05:18:48;;;;;;;;;;;12.30;99.90;;;;;;5131574;27;1203;-67
2022/10/27 05:21:14;;;;;;;;;;;12.30;99.90;;;;;;5130839;27;1068;-67
2022/10/27 05:23:39;;;;;;;;;;;12.20;99.90;;;;;;5131809;27;1250;-67
2022/10/27 05:26:05;;;;;;;;;;;12.20;99.90;;;;;;5131117;27;1905;-67
2022/10/27 05:28:31;;;;;;;;;;;12.10;99.90;;;;;;5131636;27;1104;-67
2022/10/27 05:30:57;;;;;;;;;;;12.10;99.90;;;;;;5131263;27;1164;-66
2022/10/27 05:33:23;;;;;;;;;;;12.00;99.90;;;;;;5110038;27;1239;-66
2022/10/27 05:35:49;;;;;;;;;;;12.00;99.90;;;;;;5131547;27;1147;-67
2022/10/27 05:38:15;;;;;;;;;;;11.90;99.90;;;;;;5130789;27;1173;-66
2022/10/27 05:40:41;;;;;;;;;;;11.90;99.90;;;;;;5112136;27;1365;-66
2022/10/27 05:43:08;;;;;;;;;;;11.80;99.90;;;;;;5130990;27;1062;-66
2022/10/27 05:45:33;;;;;;;;;;;11.80;99.90;;;;;;5113089;27;1974;-67
2022/10/27 05:48:00;;;;;;;;;;;11.70;99.90;;;;;;5130412;27;1134;-66
2022/10/27 05:50:27;;;;;;;;;;;11.70;99.90;;;;;;5131092;27;1120;-66
2022/10/27 05:52:52;;;;;;;;;;;11.60;99.90;;;;;;5131354;27;1127;-66
2022/10/27 05:55:18;;;;;;;;;;;11.70;99.90;;;;;;5129960;27;1140;-66
2022/10/27 05:57:51;;;;;;;;;;;11.80;99.90;;;;;;5128001;27;1445;-67
2022/10/27 06:00:17;;;;;;;;;;;11.80;99.90;;;;;;5108981;27;1200;-66
2022/10/27 06:02:42;;;;;;;;;;;11.90;99.90;;;;;;5122400;27;1166;-66
2022/10/27 06:05:08;;;;;;;;;;;11.90;99.90;;;;;;5123732;27;1991;-66
2022/10/27 06:07:33;;;;;;;;;;;12.00;99.90;;;;;;5126236;27;1538;-66
2022/10/27 06:09:59;;;;;;;;;;;12.00;99.90;;;;;;5129456;27;1077;-66
2022/10/27 06:12:25;;;;;;;;;;;12.00;99.90;;;;;;5129663;27;1147;-66
2022/10/27 06:14:50;;;;;;;;;;;11.90;99.90;;;;;;5129343;27;1319;-66
2022/10/27 06:17:16;;;;;;;;;;;11.90;99.90;;;;;;5129447;27;1147;-66
2022/10/27 06:19:41;;;;;;;;;;;11.90;99.90;;;;;;5129957;28;1096;-66
2022/10/27 06:22:07;;;;;;;;;;;11.80;99.90;;;;;;5128758;28;1124;-66
2022/10/27 06:24:33;;;;;;;;;;;11.80;99.90;;;;;;5129778;28;1187;-66
2022/10/27 06:26:58;;;;;;;;;;;11.80;99.90;;;;;;5130894;27;1983;-66
2022/10/27 06:29:24;;;;;;;;;;;11.80;99.90;;;;;;5114989;27;1183;-66
2022/10/27 06:31:50;;;;;;;;;;;11.80;99.90;;;;;;5132096;27;1325;-66
2022/10/27 06:34:15;;;;;;;;;;;11.80;99.90;;;;;;5134017;27;1286;-66
2022/10/27 06:36:41;;;;;;;;;;;11.80;99.90;;;;;;5133009;27;1020;-66
2022/10/27 06:39:06;;;;;;;;;;;11.80;99.90;;;;;;5133929;27;1282;-66
2022/10/27 06:41:32;;;;;;;;;;;11.80;99.90;;;;;;5133479;27;1204;-66
2022/10/27 06:43:58;;;;;;;;;;;11.90;99.90;;;;;;5132804;27;1151;-66
2022/10/27 06:46:23;;;;;;;;;;;11.90;99.90;;;;;;5114245;27;1981;-66
2022/10/27 06:48:49;;;;;;;;;;;11.90;99.90;;;;;;5133029;27;1270;-66
2022/10/27 06:51:16;;;;;;;;;;;12.00;99.90;;;;;;5121648;27;1211;-66
2022/10/27 06:53:42;;;;;;;;;;;12.10;99.90;;;;;;5117122;27;1215;-66
2022/10/27 06:56:07;;;;;;;;;;;12.20;99.90;;;;;;5133791;27;1178;-66
2022/10/27 06:58:38;;;;;;;;;;;12.30;99.90;;;;;;5125280;27;1262;-66
2022/10/27 07:01:03;;;;;;;;;;;12.40;99.90;;;;;;5107620;27;1263;-66
2022/10/27 07:03:33;;;;;;;;;;;12.40;99.90;;;;;;5127979;27;1139;-66
2022/10/27 07:05:59;;;;;;;;;;;12.50;99.90;;;;;;5131383;27;1969;-66
2022/10/27 07:08:24;;;;;;;;;;;12.60;99.90;;;;;;5135200;27;1333;-66
2022/10/27 07:10:51;;;;;;;;;;;12.70;99.90;;;;;;5130116;27;3484;-66
2022/10/27 07:13:16;;;;;;;;;;;12.80;99.90;;;;;;5109648;27;10063;-66
2022/10/27 07:15:45;;;;;;;;;;;12.80;99.90;;;;;;5090536;28;9667;-69
2022/10/27 07:18:10;;;;;;;;;;;13.00;99.90;;;;;;5075319;28;3070;-67
2022/10/27 07:20:38;;;;;;;;;;;13.00;99.90;;;;;;5079600;28;1122;-67
2022/10/27 07:23:04;;;;;;;;;;;13.10;99.90;;;;;;5092192;28;1129;-67
2022/10/27 07:25:31;;;;;;;;;;;13.20;99.90;;;;;;5090837;28;1975;-67
2022/10/27 07:27:57;;;;;;;;;;;13.30;99.90;;;;;;5089756;28;1155;-67
2022/10/27 07:30:24;;;;;;;;;;;13.30;99.90;;;;;;5090324;28;2740;-67
2022/10/27 07:32:50;;;;;;;;;;;13.40;99.90;;;;;;5090597;28;1128;-67
2022/10/27 07:35:15;;;;;;;;;;;13.40;99.90;;;;;;5091838;28;1144;-67
2022/10/27 07:37:42;;;;;;;;;;;13.50;99.90;;;;;;5091734;28;1148;-67
2022/10/27 07:40:08;;;;;;;;;;;13.60;99.90;;;;;;5100861;28;1366;-67
2022/10/27 07:42:40;;;;;;;;;;;13.70;99.90;;;;;;5072176;28;1206;-67
2022/10/27 07:45:06;;;;;;;;;;;13.70;99.90;;;;;;5091948;28;1969;-67
2022/10/27 07:47:32;;;;;;;;;;;13.80;99.90;;;;;;5072890;28;1013;-67
2022/10/27 07:49:57;;;;;;;;;;;13.80;99.90;;;;;;5091228;28;1065;-67
2022/10/27 07:52:23;;;;;;;;;;;14.00;99.90;;;;;;5081531;28;1146;-67
2022/10/27 07:54:48;;;;;;;;;;;14.00;99.90;;;;;;5084760;28;1094;-67
2022/10/27 07:57:14;;;;;;;;;;;14.10;99.90;;;;;;5091283;28;1192;-67
2022/10/27 07:59:39;;;;;;;;;;;14.10;99.90;;;;;;5091432;28;1125;-67
2022/10/27 08:02:08;;;;;;;;;;;14.10;99.90;;;;;;5090815;28;1187;-67
2022/10/27 08:04:34;;;;;;;;;;;14.20;99.90;;;;;;5091362;28;1089;-67
2022/10/27 08:07:00;;;;;;;;;;;14.20;99.90;;;;;;5071171;28;2021;-67
2022/10/27 08:09:25;;;;;;;;;;;14.20;99.90;;;;;;5090068;28;1600;-67
2022/10/27 08:11:51;;;;;;;;;;;14.30;99.90;;;;;;5091073;28;1112;-67
2022/10/27 08:14:16;;;;;;;;;;;14.40;99.90;;;;;;5091515;28;1168;-67
2022/10/27 08:16:42;;;;;;;;;;;14.40;99.90;;;;;;5090924;28;1085;-67
2022/10/27 08:19:08;;;;;;;;;;;14.50;99.90;;;;;;5090421;28;1192;-67
2022/10/27 08:21:33;;;;;;;;;;;14.60;99.90;;;;;;5072985;28;1136;-67
2022/10/27 08:23:59;;;;;;;;;;;14.70;99.90;;;;;;5090050;28;1113;-67
2022/10/27 08:26:25;;;;;;;;;;;14.80;99.90;;;;;;5090125;28;1980;-67
2022/10/27 08:28:50;;;;;;;;;;;14.90;99.90;;;;;;5090046;28;1255;-67
2022/10/27 08:31:16;;;;;;;;;;;15.00;99.90;;;;;;5091102;28;1180;-67
2022/10/27 08:33:41;;;;;;;;;;;15.00;99.90;;;;;;5090469;28;1069;-67
2022/10/27 08:36:07;;;;;;;;;;;15.10;99.90;;;;;;5089771;28;1181;-67
2022/10/27 08:38:34;;;;;;;;;;;15.20;99.90;;;;;;5090769;28;950;-67
2022/10/27 08:41:07;;;;;;;;;;;15.30;99.90;;;;;;5071555;28;1655;-67
2022/10/27 08:43:49;;;;;;;;;;;15.40;99.90;;;;;;5085088;28;1148;-67
2022/10/27 08:46:22;;;;;;;;;;;15.40;99.90;;;;;;5090721;28;1910;-67
2022/10/27 08:48:48;;;;;;;;;;;15.40;99.90;;;;;;5089871;28;1088;-66
2022/10/27 08:51:15;;;;;;;;;;;15.50;99.90;;;;;;5089507;28;1077;-67
2022/10/27 08:53:42;;;;;;;;;;;15.50;99.90;;;;;;5089710;28;1170;-67
2022/10/27 08:56:09;;;;;;;;;;;15.50;99.90;;;;;;5089617;28;1183;-67
2022/10/27 08:58:37;;;;;;;;;;;15.60;99.90;;;;;;5089573;28;1330;-67
2022/10/27 09:01:15;;;;;;;;;;;15.50;99.90;;;;;;5089414;28;1156;-67
2022/10/27 09:03:45;;;;;;;;;;;15.60;99.90;;;;;;5089615;28;1252;-67
2022/10/27 09:06:11;;;;;;;;;;;15.70;99.90;;;;;;5076735;28;3269;-67
2022/10/27 09:08:42;;;;;;;;;;;15.80;99.90;;;;;;5089907;28;1646;-67
2022/10/27 09:11:17;;;;;;;;;;;16.00;99.90;;;;;;5089558;28;2900;-67
2022/10/27 09:13:49;;;;;;;;;;;16.20;99.90;;;;;;5088464;28;1137;-67
2022/10/27 09:16:17;;;;;;;;;;;16.30;99.90;;;;;;5092896;28;1068;-68
2022/10/27 09:18:45;;;;;;;;;;;16.60;99.90;;;;;;5087745;28;1208;-67
2022/10/27 09:21:14;;;;;;;;;;;16.70;99.90;;;;;;5070153;28;1037;-67
2022/10/27 09:23:46;;;;;;;;;;;16.90;99.90;;;;;;5088247;28;1061;-67
2022/10/27 09:26:14;;;;;;;;;;;17.10;99.90;;;;;;5085719;28;1917;-67
2022/10/27 09:28:42;;;;;;;;;;;17.30;99.90;;;;;;5067400;28;1731;-67
2022/10/27 09:31:12;;;;;;;;;;;17.50;99.90;;;;;;5087766;28;1112;-67
2022/10/27 09:33:39;;;;;;;;;;;17.60;99.90;;;;;;5089087;28;1087;-67
2022/10/27 09:36:12;;;;;;;;;;;17.80;99.90;;;;;;5089369;28;1117;-67
2022/10/27 09:38:37;;;;;;;;;;;18.00;99.90;;;;;;5085625;28;1178;-68
2022/10/27 09:41:03;;;;;;;;;;;18.10;99.90;;;;;;5083916;28;1211;-68
2022/10/27 09:43:29;;;;;;;;;;;18.40;99.90;;;;;;5083851;28;1100;-67
2022/10/27 09:46:01;;;;;;;;;;;18.70;99.90;;;;;;5087105;28;1902;-68
2022/10/27 09:48:27;;;;;;;;;;;18.90;99.90;;;;;;5070232;28;1237;-68
2022/10/27 09:51:11;;;;;;;;;;;19.00;99.90;;;;;;5089332;28;1397;-68
2022/10/27 09:53:55;;;;;;;;;;;19.00;99.90;;;;;;5088720;28;1160;-68
2022/10/27 09:56:25;;;;;;;;;;;19.20;99.90;;;;;;5088500;28;1166;-68
2022/10/27 09:58:56;;;;;;;;;;;19.40;99.90;;;;;;5089154;28;1564;-68
2022/10/27 10:01:23;;;;;;;;;;;19.60;99.90;;;;;;5087992;28;1239;-68
2022/10/27 10:04:02;;;;;;;;;;;19.50;99.90;;;;;;5088456;28;1203;-68
2022/10/27 10:06:30;;;;;;;;;;;19.50;99.90;;;;;;5087668;28;1975;-68
2022/10/27 10:09:14;;;;;;;;;;;19.40;99.90;;;;;;5088633;28;1588;-68
2022/10/27 10:11:39;;;;;;;;;;;19.50;99.90;;;;;;5089340;28;1201;-68
2022/10/27 10:14:13;;;;;;;;;;;19.50;99.90;;;;;;5088911;28;1111;-67
2022/10/27 10:16:42;;;;;;;;;;;19.50;99.90;;;;;;5088706;28;1165;-68
2022/10/27 10:19:20;;;;;;;;;;;19.40;99.90;;;;;;5089487;28;1164;-68
2022/10/27 10:21:53;;;;;;;;;;;19.30;99.90;;;;;;5088282;28;1178;-67
2022/10/27 10:24:21;;;;;;;;;;;19.10;99.90;;;;;;5089108;28;1097;-67
2022/10/27 10:26:47;;;;;;;;;;;19.00;99.90;;;;;;5070919;28;1980;-68
2022/10/27 10:29:21;;;;;;;;;;;18.80;99.90;;;;;;5088601;28;1100;-68
2022/10/27 10:31:46;;;;;;;;;;;18.80;99.90;;;;;;5087979;28;1126;-68
2022/10/27 10:34:29;;;;;;;;;;;18.80;99.90;;;;;;5089264;28;1148;-68
2022/10/27 10:36:54;;;;;;;;;;;18.80;99.90;;;;;;5088244;28;1105;-68
2022/10/27 10:39:22;;;;;;;;;;;18.90;99.90;;;;;;5088093;28;1311;-68
2022/10/27 10:42:06;;;;;;;;;;;19.00;99.90;;;;;;5088997;28;1108;-67
2022/10/27 10:44:32;;;;;;;;;;;19.20;99.90;;;;;;5070078;28;10190;-68
2022/10/27 10:46:58;;;;;;;;;;;19.30;99.90;;;;;;5090139;28;1913;-68
2022/10/27 10:49:26;;;;;;;;;;;19.20;99.90;;;;;;5107268;28;1356;-68
2022/10/27 10:51:54;;;;;;;;;;;19.20;99.90;;;;;;5108322;28;1393;-68
2022/10/27 10:54:23;;;;;;;;;;;19.10;99.90;;;;;;5108650;28;1242;-68
2022/10/27 10:56:51;;;;;;;;;;;19.20;99.90;;;;;;5106698;28;1275;-67
2022/10/27 10:59:19;;;;;;;;;;;19.40;99.90;;;;;;5109349;28;1138;-68
2022/10/27 11:01:51;;;;;;;;;;;19.60;99.90;;;;;;5109333;28;1077;-68
2022/10/27 11:04:20;;;;;;;;;;;19.60;99.90;;;;;;5106401;28;3339;-67
2022/10/27 11:07:02;;;;;;;;;;;19.70;99.90;;;;;;5083680;28;3194;-68
2022/10/27 11:09:31;;;;;;;;;;;19.70;99.90;;;;;;5108137;28;1655;-68
2022/10/27 11:11:58;;;;;;;;;;;19.90;99.90;;;;;;5108578;28;1112;-68
2022/10/27 11:14:24;;;;;;;;;;;20.30;99.90;;;;;;5110820;28;1163;-68
2022/10/27 11:16:51;;;;;;;;;;;20.60;99.90;;;;;;5094380;28;1196;-68
2022/10/27 11:19:20;;;;;;;;;;;20.70;99.90;;;;;;5107028;28;3114;-68
2022/10/27 11:21:49;;;;;;;;;;;20.70;99.90;;;;;;5107356;28;3435;-68
2022/10/27 11:24:18;;;;;;;;;;;20.60;99.90;;;;;;5100154;28;3357;-68
2022/10/27 11:26:51;;;;;;;;;;;20.60;99.90;;;;;;5108604;28;3072;-68
2022/10/27 11:29:18;;;;;;;;;;;20.70;99.90;;;;;;5109721;28;1235;-68
2022/10/27 11:31:52;;;;;;;;;;;21.10;99.90;;;;;;5100553;28;1162;-68
2022/10/27 11:34:26;;;;;;;;;;;21.20;99.90;;;;;;5111132;28;1159;-68
2022/10/27 11:36:55;;;;;;;;;;;21.10;99.90;;;;;;5108033;28;1008;-68
2022/10/27 11:39:29;;;;;;;;;;;21.10;99.90;;;;;;5111058;28;1291;-68
2022/10/27 11:42:03;;;;;;;;;;;21.00;99.90;;;;;;5112349;28;1230;-68
2022/10/27 11:44:34;;;;;;;;;;;21.30;99.90;;;;;;5112457;28;1127;-68
2022/10/27 11:47:06;;;;;;;;;;;21.80;99.90;;;;;;5111358;28;1913;-68
2022/10/27 11:49:43;;;;;;;;;;;22.30;99.90;;;;;;5111514;28;1112;-68
2022/10/27 11:52:17;;;;;;;;;;;22.30;99.90;;;;;;5112077;28;1116;-68
2022/10/27 11:54:42;;;;;;;;;;;21.90;99.90;;;;;;5111120;28;1176;-68
2022/10/27 11:57:20;;;;;;;;;;;21.50;99.90;;;;;;5110947;28;1113;-68
2022/10/27 12:00:00;;;;;;;;;;;21.10;99.90;;;;;;5109635;28;1199;-68
2022/10/27 12:02:38;;;;;;;;;;;20.80;99.90;;;;;;5100873;28;1400;-68
2022/10/27 12:05:13;;;;;;;;;;;20.50;99.90;;;;;;5113135;28;1983;-68
2022/10/27 12:07:39;;;;;;;;;;;20.30;99.90;;;;;;5112678;27;1617;-68
2022/10/27 12:10:08;;;;;;;;;;;20.20;99.90;;;;;;5094561;28;1231;-68
2022/10/27 12:12:36;;;;;;;;;;;20.40;99.90;;;;;;5112580;28;1187;-68
2022/10/27 12:15:09;;;;;;;;;;;20.80;99.90;;;;;;5111749;28;1100;-68
2022/10/27 12:17:47;;;;;;;;;;;21.00;99.90;;;;;;5109125;28;3066;-68
2022/10/27 12:20:15;;;;;;;;;;;21.20;99.90;;;;;;5113081;28;1115;-68
2022/10/27 12:22:52;;;;;;;;;;;21.80;99.90;;;;;;5111647;28;1084;-68
2022/10/27 12:25:20;;;;;;;;;;;22.80;99.90;;;;;;5107113;28;1906;-68
2022/10/27 12:27:47;;;;;;;;;;;23.90;99.90;;;;;;5105379;28;1129;-68
2022/10/27 12:30:14;;;;;;;;;;;24.50;99.80;;;;;;5091673;28;1290;-68
2022/10/27 12:32:43;;;;;;;;;;;24.90;98.50;;;;;;5105866;28;1191;-68
2022/10/27 12:35:13;;;;;;;;;;;25.80;97.10;;;;;;5108887;28;1258;-68
2022/10/27 12:37:49;;;;;;;;;;;26.20;95.80;;;;;;5109258;28;1099;-69
2022/10/27 12:40:15;;;;;;;;;;;26.50;95.60;;;;;;5112159;28;1286;-68
2022/10/27 12:42:46;;;;;;;;;;;26.80;94.10;;;;;;5110952;28;1147;-68
2022/10/27 12:45:28;;;;;;;;;;;26.80;94.00;;;;;;5112097;28;1918;-69
2022/10/27 12:48:06;;;;;;;;;;;26.80;94.00;;;;;;5112473;28;1175;-68
2022/10/27 12:50:41;;;;;;;;;;;26.60;92.90;;;;;;5097990;28;1239;-68
2022/10/27 12:53:17;;;;;;;;;;;25.80;93.70;;;;;;5111829;28;1052;-68
2022/10/27 12:55:47;;;;;;;;;;;25.20;94.60;;;;;;5112187;28;1174;-68
2022/10/27 12:58:28;;;;;;;;;;;24.60;96.10;;;;;;5111403;28;1053;-68
2022/10/27 13:01:00;;;;;;;;;;;23.90;96.90;;;;;;5093095;28;1101;-68
2022/10/27 13:03:27;;;;;;;;;;;23.30;98.00;;;;;;5111326;28;1198;-68
2022/10/27 13:05:52;;;;;;;;;;;23.00;99.50;;;;;;5111429;28;1964;-68
2022/10/27 13:08:25;;;;;;;;;;;22.80;99.90;;;;;;5111015;28;1334;-69
2022/10/27 13:11:02;;;;;;;;;;;22.70;99.90;;;;;;5111299;28;959;-68
2022/10/27 13:13:42;;;;;;;;;;;22.80;99.90;;;;;;5112362;28;1211;-68
2022/10/27 13:16:15;;;;;;;;;;;22.90;99.70;;;;;;5093361;28;1116;-68
2022/10/27 13:18:48;;;;;;;;;;;22.90;99.80;;;;;;5110840;28;1123;-68
2022/10/27 13:21:16;;;;;;;;;;;22.80;99.90;;;;;;5111997;28;1167;-68
2022/10/27 13:23:59;;;;;;;;;;;22.60;99.90;;;;;;5111603;28;1168;-68
2022/10/27 13:26:29;;;;;;;;;;;22.40;99.90;;;;;;5111107;28;1975;-68
2022/10/27 13:28:57;;;;;;;;;;;22.20;99.90;;;;;;5111722;28;1155;-68
2022/10/27 13:31:24;;;;;;;;;;;22.00;99.90;;;;;;5110969;28;1124;-68
2022/10/27 13:34:00;;;;;;;;;;;21.90;99.90;;;;;;5111481;28;1100;-68
2022/10/27 13:36:26;;;;;;;;;;;21.80;99.90;;;;;;5110579;28;1112;-68
2022/10/27 13:39:11;;;;;;;;;;;21.90;99.90;;;;;;5110924;28;1089;-68
2022/10/27 13:41:54;;;;;;;;;;;22.20;99.90;;;;;;5111336;28;1147;-68
2022/10/27 13:44:26;;;;;;;;;;;22.50;99.90;;;;;;5110669;28;1092;-68
2022/10/27 13:47:09;;;;;;;;;;;22.30;99.90;;;;;;5110622;28;2003;-68
2022/10/27 13:49:40;;;;;;;;;;;22.00;99.90;;;;;;5111219;28;1134;-68
2022/10/27 13:52:11;;;;;;;;;;;21.70;99.90;;;;;;5110950;28;1124;-68
2022/10/27 13:54:57;;;;;;;;;;;21.50;99.90;;;;;;5109905;28;1157;-68
2022/10/27 13:57:28;;;;;;;;;;;21.50;99.90;;;;;;5111271;28;1330;-68
2022/10/27 13:59:57;;;;;;;;;;;21.70;99.90;;;;;;5110220;28;1191;-68
2022/10/27 14:02:28;;;;;;;;;;;21.70;99.90;;;;;;5110969;28;1069;-68
2022/10/27 14:04:59;;;;;;;;;;;21.50;99.90;;;;;;5092708;28;1140;-68
2022/10/27 14:07:25;;;;;;;;;;;21.30;99.90;;;;;;5110148;28;1906;-68
2022/10/27 14:09:51;;;;;;;;;;;21.00;99.90;;;;;;5108388;28;1237;-68
2022/10/27 14:12:25;;;;;;;;;;;20.70;99.90;;;;;;5103854;28;1166;-68
2022/10/27 14:14:54;;;;;;;;;;;20.50;99.90;;;;;;5104331;28;3507;-68
2022/10/27 14:17:21;;;;;;;;;;;20.30;99.90;;;;;;5099926;28;3140;-68
2022/10/27 14:19:54;;;;;;;;;;;20.00;99.90;;;;;;5075951;28;1216;-68
2022/10/27 14:22:23;;;;;;;;;;;19.90;99.90;;;;;;5088906;28;3358;-68
2022/10/27 14:24:51;;;;;;;;;;;19.70;99.90;;;;;;5092653;28;1120;-68
2022/10/27 14:27:19;;;;;;;;;;;19.60;99.90;;;;;;5110880;28;1910;-68
2022/10/27 14:29:45;;;;;;;;;;;19.50;99.90;;;;;;5109345;28;1266;-68
2022/10/27 14:32:11;;;;;;;;;;;19.40;99.90;;;;;;5110193;28;1163;-68
2022/10/27 14:34:36;;;;;;;;;;;19.30;99.90;;;;;;5109656;28;1258;-68
2022/10/27 14:37:02;;;;;;;;;;;19.20;99.90;;;;;;5110549;28;1195;-68